Time;durP1;ratioP1;P1;durP2;ratioP2;P2;SDS_P1;SDS_P2;PMS_P1;PMS_P2;Temp;Humidity;BMP_temperature;BMP_pressure;BME280_temperature;BME280_humidity;BME280_pressure;Samples;Min_cycle;Max_cycle;Signal;HPM_P1;HPM_P2
2022/06/25 01:15:48;;;;;;;3.10;0.70;;;;;;;18.61;nan;101358.66;6151199;23;20451;-95
2022/06/25 01:18:17;;;;;;;2.20;0.77;;;;;;;18.59;nan;101364.41;6161087;23;20404;-90
2022/06/25 01:20:47;;;;;;;1.63;0.70;;;;;;;18.51;nan;101356.38;6137840;23;20466;-90
2022/06/25 01:23:58;;;;;;;1.30;0.50;;;;;;;18.53;nan;101353.38;6136733;23;20408;-91
2022/06/25 01:34:15;;;;;;;2.40;0.43;;;;;;;18.48;nan;101345.75;6187691;23;20372;-93
2022/06/25 01:36:44;;;;;;;2.80;0.50;;;;;;;18.38;nan;101326.09;6161516;23;20755;-89
2022/06/25 01:39:12;;;;;;;4.50;0.87;;;;;;;18.45;nan;101339.88;6142551;23;20411;-89
2022/06/25 01:41:40;;;;;;;3.03;0.63;;;;;;;18.31;nan;101322.53;6144221;23;20412;-89
2022/06/25 01:44:09;;;;;;;3.00;1.00;;;;;;;18.38;nan;101328.84;6143935;23;20455;-89
2022/06/25 01:46:42;;;;;;;3.80;0.60;;;;;;;18.36;nan;101325.47;6145199;23;20412;-90
2022/06/25 01:49:24;;;;;;;6.27;0.77;;;;;;;18.34;nan;101326.78;6053630;23;20407;-90
2022/06/25 01:51:52;;;;;;;3.77;0.50;;;;;;;18.30;nan;101321.69;6009434;23;20425;-89
2022/06/25 01:54:20;;;;;;;9.23;0.70;;;;;;;18.31;nan;101328.09;6008809;23;20447;-90
2022/06/25 01:56:57;;;;;;;4.00;0.90;;;;;;;18.25;nan;101318.81;6000707;23;20495;-90
2022/06/25 01:59:28;;;;;;;1.30;0.57;;;;;;;18.26;nan;101314.13;6043644;23;20396;-89
2022/06/25 02:01:56;;;;;;;3.17;0.60;;;;;;;18.24;nan;101305.19;6020302;23;20444;-90
2022/06/25 02:04:30;;;;;;;4.70;0.70;;;;;;;18.26;nan;101305.81;6020172;23;20416;-90
2022/06/25 02:06:58;;;;;;;3.10;0.60;;;;;;;18.26;nan;101309.44;6034825;23;20408;-90
2022/06/25 02:09:36;;;;;;;3.27;0.57;;;;;;;18.28;nan;101311.94;6112222;23;20396;-89
2022/06/25 02:12:10;;;;;;;2.80;0.80;;;;;;;18.29;nan;101308.09;6112941;23;20396;-91
2022/06/25 02:14:41;;;;;;;2.50;0.70;;;;;;;18.33;nan;101302.94;6111869;23;20462;-89
2022/06/25 02:17:10;;;;;;;5.17;0.80;;;;;;;18.36;nan;101302.50;6135641;23;20467;-90
2022/06/25 02:19:37;;;;;;;5.30;0.80;;;;;;;18.31;nan;101292.09;6159700;23;20750;-90
2022/06/25 02:22:05;;;;;;;1.93;0.77;;;;;;;18.33;nan;101297.41;6112067;23;20408;-90
2022/06/25 02:24:32;;;;;;;3.83;0.70;;;;;;;18.36;nan;101302.50;6135630;23;20404;-90
2022/06/25 02:27:00;;;;;;;1.80;0.87;;;;;;;18.31;nan;101294.88;6136560;23;20412;-90
2022/06/25 02:33:15;;;;;;;2.13;0.50;;;;;;;18.19;nan;101285.66;6214574;23;20419;-91
2022/06/25 02:43:17;;;;;;;3.63;1.10;;;;;;;18.13;nan;101279.13;6214716;23;20379;-90
2022/06/25 02:45:46;;;;;;;3.13;0.90;;;;;;;18.13;nan;101278.28;6165028;23;20499;-89
2022/06/25 02:48:13;;;;;;;5.40;0.70;;;;;;;18.06;nan;101272.00;6165077;23;20483;-90
2022/06/25 02:50:41;;;;;;;4.50;0.90;;;;;;;18.06;nan;101272.00;6140726;23;20412;-89
2022/06/25 02:53:10;;;;;;;2.47;0.80;;;;;;;18.07;nan;101285.59;6164846;23;20463;-88
2022/06/25 03:01:13;;;;;;;1.83;0.83;;;;;;;17.99;nan;101280.34;6164768;23;20877;-89
2022/06/25 03:03:41;;;;;;;1.60;0.50;;;;;;;17.97;nan;101278.88;6111936;23;20415;-89
2022/06/25 03:06:10;;;;;;;2.57;0.60;;;;;;;17.92;nan;101274.88;6136443;23;20392;-89
2022/06/25 03:08:39;;;;;;;7.20;0.80;;;;;;;17.87;nan;101268.38;6136357;23;20404;-90
2022/06/25 03:11:08;;;;;;;3.87;0.60;;;;;;;17.84;nan;101266.91;6136199;23;20424;-90
2022/06/25 03:13:37;;;;;;;3.60;0.63;;;;;;;17.80;nan;101271.19;6111831;23;20404;-90
2022/06/25 03:16:05;;;;;;;2.10;1.00;;;;;;;17.74;nan;101269.34;6128591;23;20832;-90
2022/06/25 03:18:35;;;;;;;3.00;0.60;;;;;;;17.70;nan;101272.81;6107508;23;20404;-90
2022/06/25 03:21:09;;;;;;;1.60;0.60;;;;;;;17.63;nan;101272.84;6106889;23;20397;-90
2022/06/25 03:23:38;;;;;;;3.10;0.50;;;;;;;17.64;nan;101262.63;6106698;23;20524;-90
2022/06/25 03:26:06;;;;;;;2.30;0.80;;;;;;;17.61;nan;101277.75;6107186;23;20408;-90
2022/06/25 03:28:36;;;;;;;2.60;0.63;;;;;;;17.48;nan;101253.00;6106490;23;20409;-90
2022/06/25 03:31:04;;;;;;;2.70;0.63;;;;;;;17.60;nan;101264.97;6131612;23;20464;-90
2022/06/25 03:33:33;;;;;;;5.53;1.90;;;;;;;17.62;nan;101268.38;6082972;23;20400;-90
2022/06/25 03:36:01;;;;;;;4.90;0.70;;;;;;;17.62;nan;101265.59;6107284;23;20444;-89
2022/06/25 03:38:32;;;;;;;5.43;1.17;;;;;;;17.62;nan;101265.59;6109681;23;20401;-90
2022/06/25 03:43:49;;;;;;;1.30;0.70;;;;;;;17.57;nan;101259.91;6116359;23;20409;-90
2022/06/25 03:46:18;;;;;;;2.47;0.70;;;;;;;17.53;nan;101265.03;6120819;23;20412;-90
2022/06/25 03:48:47;;;;;;;2.80;0.50;;;;;;;17.42;nan;101256.66;6108101;23;20413;-89
2022/06/25 03:51:15;;;;;;;2.37;0.70;;;;;;;17.49;nan;101265.75;6120857;23;20397;-89
2022/06/25 03:53:44;;;;;;;4.57;0.60;;;;;;;17.43;nan;101261.13;6132495;23;20416;-89
2022/06/25 03:56:12;;;;;;;1.83;0.57;;;;;;;17.44;nan;101266.41;6132258;23;20452;-90
2022/06/25 03:58:40;;;;;;;2.27;0.50;;;;;;;17.37;nan;101260.09;6108764;23;20403;-90
2022/06/25 04:01:09;;;;;;;1.43;0.77;;;;;;;17.37;nan;101259.25;6107871;23;20419;-89
2022/06/25 04:03:36;;;;;;;1.83;0.70;;;;;;;17.30;nan;101252.94;6108270;23;20393;-90
2022/06/25 04:06:05;;;;;;;2.87;0.97;;;;;;;17.33;nan;101264.38;6084862;23;20405;-89
2022/06/25 04:08:33;;;;;;;3.50;0.70;;;;;;;17.30;nan;101264.00;6148223;23;20409;-89
2022/06/25 04:11:04;;;;;;;4.37;0.80;;;;;;;17.25;nan;101264.66;6109394;23;20491;-89
2022/06/25 04:13:32;;;;;;;4.23;0.80;;;;;;;17.22;nan;101265.97;6107774;23;20950;-89
2022/06/25 04:16:01;;;;;;;2.37;0.80;;;;;;;17.17;nan;101271.31;6135992;23;20460;-90
2022/06/25 04:18:31;;;;;;;4.03;1.00;;;;;;;17.13;nan;101270.06;6137307;23;20547;-89
2022/06/25 04:21:00;;;;;;;6.30;0.87;;;;;;;17.09;nan;101268.84;6113822;23;20404;-89
2022/06/25 04:23:28;;;;;;;3.53;0.90;;;;;;;17.08;nan;101272.66;6137379;23;20411;-89
2022/06/25 04:26:00;;;;;;;9.73;1.10;;;;;;;17.03;nan;101275.25;6138282;23;20412;-91
2022/06/25 04:31:25;;;;;;;2.43;0.70;;;;;;;16.87;nan;101271.09;6145617;23;20492;-90
2022/06/25 04:33:53;;;;;;;2.70;0.50;;;;;;;16.85;nan;101286.19;6137416;23;20412;-90
2022/06/25 04:36:22;;;;;;;2.13;0.60;;;;;;;16.82;nan;101278.34;6113495;23;20447;-90
2022/06/25 04:38:50;;;;;;;3.57;0.70;;;;;;;16.80;nan;101286.84;6137661;23;20407;-89
2022/06/25 04:41:19;;;;;;;3.93;0.80;;;;;;;16.77;nan;101280.94;6137749;23;20408;-90
2022/06/25 04:43:51;;;;;;;2.13;0.77;;;;;;;16.67;nan;101270.38;6162067;23;20734;-89
2022/06/25 04:46:19;;;;;;;1.30;0.80;;;;;;;16.67;nan;101280.56;6112775;23;20408;-89
2022/06/25 04:48:48;;;;;;;3.70;0.63;;;;;;;16.65;nan;101278.03;6137211;23;20405;-89
2022/06/25 04:51:18;;;;;;;3.23;0.97;;;;;;;16.66;nan;101281.66;6137587;23;20412;-90
2022/06/25 04:53:55;;;;;;;2.93;0.70;;;;;;;16.66;nan;101282.50;6161821;23;20736;-89
2022/06/25 04:56:26;;;;;;;2.43;0.80;;;;;;;16.65;nan;101291.00;6161289;23;21001;-90
2022/06/25 04:59:00;;;;;;;2.37;0.57;;;;;;;16.61;nan;101284.19;6161280;23;20782;-89
2022/06/25 05:01:29;;;;;;;3.40;0.80;;;;;;;16.62;nan;101285.88;6137873;23;20399;-89
2022/06/25 05:03:58;;;;;;;2.40;0.77;;;;;;;16.61;nan;101286.94;6137162;23;20534;-90
2022/06/25 05:06:26;;;;;;;3.40;0.70;;;;;;;16.61;nan;101284.19;6114064;23;20479;-89
2022/06/25 05:08:54;;;;;;;2.83;1.23;;;;;;;16.58;nan;101278.03;6113806;23;20725;-89
2022/06/25 05:11:25;;;;;;;3.90;0.80;;;;;;;16.63;nan;101284.81;6139060;23;20416;-89
2022/06/25 05:13:53;;;;;;;3.33;0.70;;;;;;;16.62;nan;101281.19;6162025;23;20423;-89
2022/06/25 05:16:22;;;;;;;2.93;0.73;;;;;;;16.66;nan;101285.25;6132000;23;20452;-90
2022/06/25 05:18:51;;;;;;;1.83;0.57;;;;;;;16.65;nan;101283.56;6156867;23;20488;-88
2022/06/25 05:21:24;;;;;;;3.33;0.60;;;;;;;16.61;nan;101275.91;6133326;23;20457;-89
2022/06/25 05:23:53;;;;;;;1.40;0.60;;;;;;;16.64;nan;101283.78;6132763;23;20496;-89
2022/06/25 05:26:21;;;;;;;2.47;0.50;;;;;;;16.55;nan;101261.06;6108457;23;20385;-90
2022/06/25 05:28:49;;;;;;;6.53;0.83;;;;;;;16.62;nan;101261.03;6130806;23;20930;-90
2022/06/25 05:31:16;;;;;;;7.50;0.93;;;;;;;16.77;nan;101280.94;6107992;23;20903;-90
2022/06/25 05:33:46;;;;;;;2.00;0.70;;;;;;;16.86;nan;101285.13;6107604;23;20942;-90
2022/06/25 05:36:16;;;;;;;1.57;0.70;;;;;;;16.87;nan;101262.81;6134655;23;20433;-89
2022/06/25 05:38:44;;;;;;;4.53;0.90;;;;;;;16.94;nan;101254.47;6131830;23;20401;-89
2022/06/25 05:41:14;;;;;;;2.30;0.50;;;;;;;17.03;nan;101258.69;6133312;23;20417;-89
2022/06/25 05:43:43;;;;;;;4.33;0.87;;;;;;;17.03;nan;101255.91;6133146;23;20435;-90
2022/06/25 05:46:11;;;;;;;3.30;0.80;;;;;;;17.07;nan;101248.03;6108335;23;20781;-90
2022/06/25 05:48:39;;;;;;;3.83;0.93;;;;;;;17.13;nan;101253.47;6131959;23;20498;-89
2022/06/25 05:51:10;;;;;;;17.10;2.60;;;;;;;17.22;nan;101263.19;6132298;23;20521;-90
2022/06/25 05:53:42;;;;;;;2.70;0.97;;;;;;;17.20;nan;101243.22;6132245;23;20409;-89
2022/06/25 05:56:11;;;;;;;2.47;0.60;;;;;;;17.42;nan;101278.75;6130367;23;20775;-89
2022/06/25 05:58:42;;;;;;;2.63;0.73;;;;;;;17.53;nan;101287.16;6129114;23;20406;-89
2022/06/25 06:01:11;;;;;;;3.80;0.90;;;;;;;17.59;nan;101277.13;6153847;23;20427;-90
2022/06/25 06:03:43;;;;;;;2.13;0.73;;;;;;;17.66;nan;101275.19;6129699;23;20381;-90
2022/06/25 06:06:11;;;;;;;2.40;1.10;;;;;;;17.73;nan;101269.56;6178129;23;20491;-89
2022/06/25 06:08:41;;;;;;;1.87;0.93;;;;;;;17.75;nan;101256.34;6129894;23;20421;-89
2022/06/25 06:11:15;;;;;;;2.87;1.10;;;;;;;17.79;nan;101257.59;6178479;23;20500;-90
2022/06/25 06:13:55;;;;;;;5.10;1.10;;;;;;;17.90;nan;101282.56;6130475;23;20742;-95
2022/06/25 06:16:25;;;;;;;4.60;1.00;;;;;;;17.93;nan;101271.03;6050576;23;1565163;-91
2022/06/25 06:18:53;;;;;;;4.70;1.20;;;;;;;18.04;nan;101283.28;6136395;23;20182;-89
2022/06/25 06:21:29;;;;;;;7.83;1.40;;;;;;;18.11;nan;101267.44;6136938;23;20542;-89
2022/06/25 06:23:56;;;;;;;4.60;1.50;;;;;;;18.21;nan;101267.75;6136615;23;20400;-89
2022/06/25 06:26:30;;;;;;;5.77;1.67;;;;;;;18.34;nan;101283.34;6136634;23;20467;-90
2022/06/25 06:29:01;;;;;;;18.03;2.20;;;;;;;18.42;nan;101283.03;6136958;23;20462;-90
2022/06/25 06:31:31;;;;;;;5.30;1.20;;;;;;;18.50;nan;101281.84;6160719;23;20415;-89
2022/06/25 06:34:00;;;;;;;4.27;1.03;;;;;;;18.53;nan;101271.16;6160261;23;20464;-90
2022/06/25 06:36:31;;;;;;;6.00;1.20;;;;;;;18.60;nan;101277.50;6136545;23;20846;-89
2022/06/25 06:38:58;;;;;;;3.10;1.00;;;;;;;18.70;nan;101278.84;6136600;23;20404;-90
2022/06/25 06:41:44;;;;;;;6.90;1.73;;;;;;;18.78;nan;101275.78;6136085;23;20399;-93
2022/06/25 06:44:13;;;;;;;4.97;1.40;;;;;;;18.92;nan;101280.03;6112954;23;20471;-92
2022/06/25 06:46:41;;;;;;;7.10;2.17;;;;;;;19.02;nan;101285.84;6136144;23;20403;-91
2022/06/25 06:49:10;;;;;;;4.67;1.90;;;;;;;19.06;nan;101275.97;6136163;23;20415;-88
2022/06/25 06:51:37;;;;;;;3.40;0.67;;;;;;;19.17;nan;101289.03;6135467;23;20467;-87
2022/06/25 06:54:08;;;;;;;5.67;0.90;;;;;;;19.25;nan;101277.56;6159753;23;20480;-89
2022/06/25 06:56:36;;;;;;;8.60;0.90;;;;;;;19.31;nan;101284.09;6160141;23;20431;-89
2022/06/25 06:59:04;;;;;;;4.50;0.77;;;;;;;19.32;nan;101283.88;6136431;23;20411;-87
2022/06/25 07:01:34;;;;;;;5.17;0.90;;;;;;;19.37;nan;101288.69;6133225;23;20491;-88
2022/06/25 07:04:02;;;;;;;2.90;0.70;;;;;;;19.43;nan;101289.69;6159370;23;20412;-87
2022/06/25 07:06:30;;;;;;;5.03;0.73;;;;;;;19.49;nan;101291.47;6159887;23;20487;-87
2022/06/25 07:08:57;;;;;;;2.50;0.63;;;;;;;19.59;nan;101289.84;6158886;23;20423;-87
2022/06/25 07:11:30;;;;;;;9.70;0.90;;;;;;;19.65;nan;101296.34;6111924;23;20487;-87
2022/06/25 07:14:00;;;;;;;4.27;0.70;;;;;;;19.71;nan;101300.94;6161885;23;20393;-87
2022/06/25 07:16:28;;;;;;;3.33;0.63;;;;;;;19.90;nan;101288.63;6108141;23;20539;-87
2022/06/25 07:18:57;;;;;;;2.20;1.00;;;;;;;19.91;nan;101306.97;6132423;23;20431;-87
2022/06/25 07:21:27;;;;;;;4.10;0.60;;;;;;;19.97;nan;101297.69;6109249;23;20483;-87
2022/06/25 07:23:55;;;;;;;6.40;0.67;;;;;;;20.04;nan;101299.47;6132028;23;20483;-88
2022/06/25 07:26:26;;;;;;;9.03;1.83;;;;;;;20.12;nan;101290.78;6131660;23;20904;-87
2022/06/25 07:28:54;;;;;;;3.60;0.73;;;;;;;20.14;nan;101283.91;6156695;23;20401;-88
2022/06/25 07:31:22;;;;;;;4.53;0.80;;;;;;;20.31;nan;101300.66;6132212;23;20515;-87
2022/06/25 07:33:50;;;;;;;3.00;0.90;;;;;;;20.52;nan;101302.81;6132478;23;20911;-87
2022/06/25 07:36:18;;;;;;;3.40;0.80;;;;;;;20.65;nan;101296.94;6131780;23;20766;-88
2022/06/25 07:38:47;;;;;;;3.43;0.67;;;;;;;20.62;nan;101302.16;6131863;23;20491;-88
2022/06/25 07:41:14;;;;;;;2.70;0.57;;;;;;;20.57;nan;101302.06;6132573;23;20491;-87
2022/06/25 07:43:43;;;;;;;2.60;0.70;;;;;;;20.52;nan;101310.28;6132129;23;20884;-88
2022/06/25 07:46:12;;;;;;;2.73;0.73;;;;;;;20.46;nan;101309.31;6181466;23;20492;-89
2022/06/25 15:50:39;;;;;;;12.43;2.00;;;;;;;26.88;nan;101173.00;6155750;23;20919;-92
2022/06/25 15:53:31;;;;;;;11.87;2.30;;;;;;;26.84;nan;101177.50;6114738;23;20833;-92
2022/06/25 15:56:02;;;;;;;6.43;2.10;;;;;;;26.70;nan;101176.50;6163141;23;20515;-93
2022/06/25 16:01:26;;;;;;;5.20;1.77;;;;;;;26.49;nan;101171.03;6166607;23;20454;-93
2022/06/25 16:03:56;;;;;;;11.60;1.73;;;;;;;26.28;nan;101185.41;6114917;23;20479;-91
2022/06/25 16:06:24;;;;;;;7.33;1.67;;;;;;;26.11;nan;101183.81;6138360;23;20452;-92
2022/06/25 16:08:52;;;;;;;16.23;1.80;;;;;;;25.92;nan;101181.91;6138828;23;20520;-91
2022/06/25 16:11:31;;;;;;;8.83;2.27;;;;;;;26.02;nan;101174.31;6138400;23;20416;-92
2022/06/25 16:14:07;;;;;;;9.23;1.63;;;;;;;26.11;nan;101169.78;6163253;23;20489;-91
2022/06/25 16:16:40;;;;;;;6.97;2.00;;;;;;;25.93;nan;101166.78;6115795;23;20435;-91
2022/06/25 16:19:08;;;;;;;11.33;2.13;;;;;;;25.99;nan;101174.03;6115063;23;20411;-92
2022/06/25 16:22:13;;;;;;;8.33;1.60;;;;;;;25.84;nan;101162.88;6147092;23;20473;-91
2022/06/25 16:24:43;;;;;;;8.20;1.57;;;;;;;25.96;nan;101150.25;6186910;23;21006;-92
2022/06/25 16:27:17;;;;;;;5.87;2.00;;;;;;;25.91;nan;101167.06;6137556;23;20419;-91
2022/06/25 16:29:45;;;;;;;14.93;1.97;;;;;;;25.95;nan;101170.16;6138480;23;20414;-92
2022/06/25 16:32:13;;;;;;;10.43;2.43;;;;;;;25.98;nan;101155.56;6140510;23;20472;-91
2022/06/25 16:35:03;;;;;;;13.63;1.90;;;;;;;26.00;nan;101167.31;6118477;23;20396;-92
2022/06/25 16:37:58;;;;;;;5.70;1.73;;;;;;;25.70;nan;101176.66;6162997;23;20440;-93
2022/06/25 16:40:27;;;;;;;5.37;1.70;;;;;;;25.56;nan;101164.34;6165340;23;20422;-93
2022/06/25 16:43:05;;;;;;;17.97;1.90;;;;;;;25.47;nan;101156.53;6140113;23;20760;-92
2022/06/25 16:45:46;;;;;;;5.97;1.83;;;;;;;25.32;nan;101144.53;6138296;23;20407;-93
2022/06/25 16:48:22;;;;;;;6.73;2.00;;;;;;;25.25;nan;101138.38;6140450;23;20835;-92
2022/06/25 16:50:51;;;;;;;7.60;2.00;;;;;;;25.22;nan;101122.97;6133982;23;20444;-93
2022/06/25 16:53:37;;;;;;;6.43;1.70;;;;;;;25.27;nan;101113.75;6158159;23;20496;-93
2022/06/25 18:51:17;;;;;;;14.60;2.90;;;;;;;;;;6185271;23;20423;-92
2022/06/25 18:53:45;;;;;;;16.40;3.43;;;;;;;;;;6160926;23;20404;-92
2022/06/25 20:25:58;;;;;;;14.33;2.23;;;;;;;;;;6229055;22;20675;-91
2022/06/25 20:28:28;;;;;;;13.37;3.97;;;;;;;;;;6126873;23;20448;-91
2022/06/25 20:30:57;;;;;;;20.77;3.50;;;;;;;;;;6125401;23;20414;-91
2022/06/25 20:33:41;;;;;;;10.33;2.80;;;;;;;;;;6109238;23;20437;-91
2022/06/25 20:36:32;;;;;;;10.73;2.43;;;;;;;;;;6131786;23;20475;-92
2022/06/25 20:39:00;;;;;;;18.70;3.77;;;;;;;;;;6132089;23;20415;-92
2022/06/25 20:41:55;;;;;;;20.20;3.47;;;;;;;;;;6108085;23;20417;-91
2022/06/25 20:44:28;;;;;;;12.53;3.60;;;;;;;;;;6132545;23;20416;-92
2022/06/25 20:47:02;;;;;;;17.37;3.47;;;;;;;;;;6108914;23;20764;-91
2022/06/25 20:49:47;;;;;;;11.30;3.40;;;;;;;;;;6112193;23;20409;-92
2022/06/25 20:52:20;;;;;;;16.37;2.70;;;;;;;;;;6132854;23;20397;-91
2022/06/25 20:54:52;;;;;;;22.63;4.30;;;;;;;;;;6108725;23;20727;-92
2022/06/25 20:57:25;;;;;;;19.60;3.70;;;;;;;;;;6132247;23;20496;-92
2022/06/25 20:59:54;;;;;;;19.07;3.60;;;;;;;;;;6107406;23;20447;-91
2022/06/25 21:02:22;;;;;;;12.00;2.63;;;;;;;;;;6108980;23;20386;-92
2022/06/25 21:08:07;;;;;;;18.50;3.20;;;;;;;;;;6136395;23;20912;-90
2022/06/25 21:10:43;;;;;;;12.53;2.57;;;;;;;;;;6109619;23;20899;-92
2022/06/25 21:13:13;;;;;;;17.17;3.10;;;;;;;;;;6108535;23;20389;-91
2022/06/25 21:15:54;;;;;;;22.57;2.97;;;;;;;;;;6107345;23;20444;-91
2022/06/25 21:18:41;;;;;;;9.00;2.90;;;;;;;;;;6132248;23;20963;-91
2022/06/25 21:21:14;;;;;;;14.07;3.07;;;;;;;;;;6108297;23;20437;-92
2022/06/25 21:23:42;;;;;;;13.73;3.43;;;;;;;;;;6108451;23;20409;-92
2022/06/25 21:26:35;;;;;;;24.53;4.53;;;;;;;;;;6110032;23;20761;-91
2022/06/25 21:29:04;;;;;;;17.30;3.50;;;;;;;;;;6161803;23;20389;-91
2022/06/25 21:31:33;;;;;;;12.77;2.77;;;;;;;;;;6137487;23;20399;-92
2022/06/25 21:34:08;;;;;;;17.63;3.43;;;;;;;;;;6137155;23;20466;-91
2022/06/25 21:36:37;;;;;;;18.67;3.90;;;;;;;;;;6161375;23;20422;-91
2022/06/25 21:39:24;;;;;;;14.80;2.87;;;;;;;;;;6161496;23;20789;-91
2022/06/25 21:41:54;;;;;;;14.53;2.73;;;;;;;;;;6162214;23;20412;-91
2022/06/25 21:44:28;;;;;;;19.53;3.57;;;;;;;;;;6161952;23;20440;-91
2022/06/25 21:47:07;;;;;;;16.93;2.70;;;;;;;;;;6136934;23;20440;-91
2022/06/25 21:49:35;;;;;;;14.13;3.43;;;;;;;;;;6137285;23;20419;-91
2022/06/25 21:52:04;;;;;;;14.97;3.53;;;;;;;;;;6161870;23;20412;-91
2022/06/25 21:54:39;;;;;;;12.03;2.87;;;;;;;;;;6161729;23;20790;-91
2022/06/25 22:24:42;;;;;;;17.30;3.93;;;;;;;;;;6186007;23;20408;-91
2022/06/25 22:27:10;;;;;;;19.80;3.40;;;;;;;;;;6155295;23;20519;-91
2022/06/25 22:29:38;;;;;;;15.50;3.20;;;;;;;;;;6130931;23;20419;-91
2022/06/25 22:32:06;;;;;;;14.07;3.20;;;;;;;;;;6155402;23;20459;-91
2022/06/25 22:34:35;;;;;;;15.00;3.47;;;;;;;;;;6159884;23;20411;-91
2022/06/25 22:37:10;;;;;;;17.40;3.37;;;;;;;;;;6156481;23;20437;-91
2022/06/25 22:40:03;;;;;;;11.23;2.87;;;;;;;;;;6156131;23;20463;-93
2022/06/25 22:42:33;;;;;;;24.70;3.37;;;;;;;;;;6180790;23;20472;-89
2022/06/25 22:45:01;;;;;;;14.90;3.40;;;;;;;;;;6156664;23;20421;-88
2022/06/25 22:47:28;;;;;;;18.20;2.93;;;;;;;;;;6130485;23;20456;-86
2022/06/25 22:50:05;;;;;;;15.50;3.57;;;;;;;;;;6154371;23;20460;-88
2022/06/25 22:52:33;;;;;;;17.13;3.53;;;;;;;;;;6178828;23;20393;-88
2022/06/25 22:55:02;;;;;;;19.53;3.37;;;;;;;;;;6154358;23;20400;-88
2022/06/25 22:57:29;;;;;;;20.23;3.73;;;;;;;;;;6152395;23;20448;-88
2022/06/25 22:59:59;;;;;;;24.90;3.40;;;;;;;;;;6127030;23;20402;-89
2022/06/25 23:02:30;;;;;;;16.70;3.67;;;;;;;;;;6156089;23;20776;-88
2022/06/25 23:04:57;;;;;;;17.53;3.63;;;;;;;;;;6154591;23;20398;-88
2022/06/25 23:07:25;;;;;;;20.40;3.13;;;;;;;;;;6130171;23;20408;-88
2022/06/25 23:09:53;;;;;;;27.00;4.80;;;;;;;;;;6130736;23;20452;-88
2022/06/25 23:12:21;;;;;;;29.37;3.90;;;;;;;;;;6155040;23;20472;-85
2022/06/25 23:14:50;;;;;;;16.60;3.87;;;;;;;;;;6130841;23;20484;-88
2022/06/25 23:17:18;;;;;;;16.17;3.40;;;;;;;;;;6179695;23;20432;-87
2022/06/25 23:19:46;;;;;;;29.20;4.47;;;;;;;;;;6154726;23;20731;-86
2022/06/25 23:22:14;;;;;;;26.87;4.20;;;;;;;;;;6130035;23;20419;-86
2022/06/25 23:24:44;;;;;;;21.40;3.10;;;;;;;;;;6130919;23;20492;-85
2022/06/25 23:27:13;;;;;;;16.47;3.27;;;;;;;;;;6129954;23;20971;-87
2022/06/25 23:29:45;;;;;;;14.07;2.90;;;;;;;;;;6154109;23;20719;-87
2022/06/25 23:32:14;;;;;;;17.57;3.80;;;;;;;;;;6154551;23;20401;-88
2022/06/25 23:34:42;;;;;;;18.27;4.00;;;;;;;;;;6154402;23;20903;-88
2022/06/25 23:37:10;;;;;;;17.30;2.97;;;;;;;;;;6155097;23;20495;-87
2022/06/25 23:39:39;;;;;;;20.40;3.33;;;;;;;;;;6154302;23;20409;-87
2022/06/25 23:42:07;;;;;;;22.37;3.90;;;;;;;;;;6155776;23;20444;-88
2022/06/25 23:44:36;;;;;;;23.13;3.80;;;;;;;;;;6153929;23;20723;-89
2022/06/25 23:47:03;;;;;;;16.23;3.70;;;;;;;;;;6154206;23;20401;-88
2022/06/25 23:49:33;;;;;;;16.40;3.30;;;;;;;;;;6153942;23;20480;-88
2022/06/25 23:52:00;;;;;;;19.20;3.23;;;;;;;;;;6179242;23;20498;-88
2022/06/25 23:54:30;;;;;;;19.43;3.70;;;;;;;;;;6156254;23;20408;-88
2022/06/25 23:56:59;;;;;;;20.10;3.30;;;;;;;;;;6155874;23;20396;-88
2022/06/25 23:59:29;;;;;;;21.93;4.50;;;;;;;;;;6131859;23;20443;-88
